Time;durP1;ratioP1;P1;durP2;ratioP2;P2;SDS_P1;SDS_P2;PMS_P1;PMS_P2;Temp;Humidity;BMP_temperature;BMP_pressure;BME280_temperature;BME280_humidity;BME280_pressure;Samples;Min_cycle;Max_cycle;Signal;HPM_P1;HPM_P2
2020/12/21 00:01:22;;;;;;;14.50;2.33;;;7.30;92.40;;;;;;5038956;28;20030;-81
2020/12/21 00:03:48;;;;;;;11.35;1.92;;;7.20;92.50;;;;;;5024777;28;20032;-82
2020/12/21 00:06:14;;;;;;;21.70;3.45;;;7.20;92.40;;;;;;5038191;28;20032;-83
2020/12/21 00:08:40;;;;;;;7.22;1.60;;;7.10;92.50;;;;;;5027720;28;20488;-82
2020/12/21 00:11:05;;;;;;;6.78;1.88;;;7.20;92.60;;;;;;5024488;28;20037;-80
2020/12/21 00:13:31;;;;;;;10.95;2.10;;;7.20;92.40;;;;;;5014632;28;20107;-81
2020/12/21 00:15:56;;;;;;;14.52;2.28;;;7.10;92.50;;;;;;5015186;28;20044;-81
2020/12/21 00:18:22;;;;;;;6.25;1.70;;;7.10;92.50;;;;;;5026672;28;20039;-81
2020/12/21 00:20:47;;;;;;;11.00;1.65;;;7.10;92.60;;;;;;5028904;28;20115;-82
2020/12/21 00:23:13;;;;;;;6.30;1.73;;;7.00;92.50;;;;;;5040399;28;20032;-79
2020/12/21 00:25:38;;;;;;;9.65;2.40;;;7.10;92.40;;;;;;5014123;28;20029;-81
2020/12/21 00:28:04;;;;;;;13.50;1.75;;;7.00;92.50;;;;;;5026297;28;20032;-82
2020/12/21 00:30:30;;;;;;;12.27;2.53;;;6.90;92.70;;;;;;5045821;28;20025;-82
2020/12/21 00:32:55;;;;;;;4.85;1.63;;;6.90;92.50;;;;;;5054205;28;20021;-81
2020/12/21 00:35:21;;;;;;;8.13;2.30;;;6.90;92.60;;;;;;5027563;28;20099;-81
2020/12/21 00:37:46;;;;;;;9.07;2.17;;;7.00;92.70;;;;;;5020096;28;20041;-81
2020/12/21 00:40:12;;;;;;;8.40;2.25;;;7.00;92.50;;;;;;5037304;28;20060;-82
2020/12/21 00:42:37;;;;;;;6.60;2.08;;;7.00;92.50;;;;;;5018093;28;20536;-82
2020/12/21 00:45:03;;;;;;;10.70;2.55;;;7.00;92.50;;;;;;5026484;28;20037;-82
2020/12/21 00:47:32;;;;;;;9.65;1.75;;;7.00;92.40;;;;;;5019232;28;20040;-83
2020/12/21 00:49:57;;;;;;;3.72;1.00;;;7.10;92.50;;;;;;5027816;28;20394;-82
2020/12/21 00:52:23;;;;;;;8.65;1.83;;;7.00;92.40;;;;;;5028073;28;20020;-82
2020/12/21 00:54:48;;;;;;;2.53;0.88;;;7.00;92.40;;;;;;5015720;28;20476;-83
2020/12/21 00:57:14;;;;;;;8.00;1.80;;;7.00;92.60;;;;;;5020823;28;20032;-82
2020/12/21 00:59:39;;;;;;;7.72;1.60;;;7.00;92.50;;;;;;5016457;28;20090;-81
2020/12/21 01:02:05;;;;;;;4.75;1.40;;;7.00;92.40;;;;;;5042172;28;20025;-81
2020/12/21 01:04:31;;;;;;;3.05;1.40;;;7.00;92.40;;;;;;5013617;28;20119;-82
2020/12/21 01:06:57;;;;;;;9.85;1.60;;;7.00;92.40;;;;;;5048881;28;20123;-82
2020/12/21 01:09:22;;;;;;;10.07;1.60;;;7.00;92.50;;;;;;5046282;28;20111;-81
2020/12/21 01:11:48;;;;;;;12.45;1.80;;;6.90;92.50;;;;;;5016078;28;20046;-81
2020/12/21 01:14:13;;;;;;;3.08;0.98;;;6.90;92.40;;;;;;5032863;28;20031;-81
2020/12/21 01:16:39;;;;;;;9.23;2.35;;;6.90;92.50;;;;;;5041705;28;20435;-82
2020/12/21 01:19:04;;;;;;;5.60;1.92;;;6.90;92.50;;;;;;5043710;28;20036;-82
2020/12/21 01:21:31;;;;;;;11.93;1.77;;;6.90;92.40;;;;;;5023541;28;20028;-83
2020/12/21 01:23:57;;;;;;;8.52;1.98;;;6.90;92.50;;;;;;5057041;28;20024;-82
2020/12/21 01:26:23;;;;;;;5.20;1.70;;;6.90;92.40;;;;;;5038880;28;20102;-82
2020/12/21 01:28:49;;;;;;;3.33;1.70;;;6.90;92.40;;;;;;5013351;28;20032;-82
2020/12/21 01:31:16;;;;;;;10.05;1.65;;;6.90;92.60;;;;;;5046993;28;20038;-82
2020/12/21 01:33:41;;;;;;;9.35;2.08;;;6.90;92.40;;;;;;5032606;28;20032;-83
2020/12/21 01:36:07;;;;;;;4.40;1.67;;;6.90;92.40;;;;;;5028409;28;20499;-81
2020/12/21 01:38:32;;;;;;;5.78;1.40;;;6.80;92.50;;;;;;5029289;28;20422;-82
2020/12/21 01:40:58;;;;;;;5.00;1.42;;;6.80;92.50;;;;;;5033130;28;20472;-82
2020/12/21 01:43:23;;;;;;;10.57;1.30;;;6.80;92.40;;;;;;5021206;28;20024;-82
2020/12/21 01:45:49;;;;;;;4.53;1.50;;;6.80;92.60;;;;;;5044838;28;20048;-83
2020/12/21 01:48:14;;;;;;;8.93;1.77;;;6.80;92.40;;;;;;5033209;28;20028;-79
2020/12/21 01:50:40;;;;;;;6.57;1.65;;;6.80;92.50;;;;;;5035337;28;20016;-82
2020/12/21 01:53:10;;;;;;;13.55;1.80;;;6.90;92.40;;;;;;5027067;28;20492;-82
2020/12/21 01:55:35;;;;;;;7.72;2.83;;;6.80;92.40;;;;;;5041764;28;20032;-83
2020/12/21 01:58:01;;;;;;;7.10;1.90;;;6.80;92.60;;;;;;5040675;28;20062;-82
2020/12/21 02:00:29;;;;;;;7.50;1.40;;;6.80;92.40;;;;;;5017504;28;20024;-82
2020/12/21 02:02:55;;;;;;;14.18;5.28;;;6.80;92.40;;;;;;5058336;28;20509;-84
2020/12/21 02:05:20;;;;;;;6.43;1.00;;;6.70;92.60;;;;;;5026388;28;20045;-83
2020/12/21 02:07:46;;;;;;;5.25;1.75;;;6.70;92.60;;;;;;5024290;28;20136;-82
2020/12/21 02:10:12;;;;;;;6.47;1.65;;;6.60;92.60;;;;;;5031588;28;20035;-83
2020/12/21 02:12:37;;;;;;;7.55;1.42;;;6.60;92.60;;;;;;5016787;28;20024;-83
2020/12/21 02:15:03;;;;;;;7.50;2.72;;;6.70;92.60;;;;;;5028268;28;20060;-84
2020/12/21 02:17:28;;;;;;;8.55;1.92;;;6.60;92.60;;;;;;5017850;28;20065;-82
2020/12/21 02:19:54;;;;;;;15.23;1.92;;;6.70;92.70;;;;;;5026190;28;20028;-83
2020/12/21 02:22:19;;;;;;;7.45;1.42;;;6.70;92.60;;;;;;5032338;28;20487;-84
2020/12/21 02:24:45;;;;;;;5.40;1.58;;;6.80;92.60;;;;;;5032314;28;20036;-83
2020/12/21 02:27:10;;;;;;;7.25;1.30;;;6.60;92.50;;;;;;5029035;28;20051;-83
2020/12/21 02:29:36;;;;;;;8.25;1.63;;;6.70;92.60;;;;;;5041706;28;20040;-82
2020/12/21 02:32:01;;;;;;;14.80;2.05;;;6.70;92.60;;;;;;5027062;28;20024;-82
2020/12/21 02:34:27;;;;;;;6.38;1.73;;;6.70;92.60;;;;;;5012811;28;20029;-82
2020/12/21 02:36:54;;;;;;;10.98;2.10;;;6.70;92.60;;;;;;5045671;28;20039;-82
2020/12/21 02:39:20;;;;;;;8.85;1.77;;;6.70;92.60;;;;;;5031917;28;20090;-83
2020/12/21 02:41:45;;;;;;;6.90;1.85;;;6.60;92.60;;;;;;5008384;28;20032;-82
2020/12/21 02:44:11;;;;;;;9.43;1.45;;;6.60;92.60;;;;;;5014561;28;20058;-82
2020/12/21 02:46:36;;;;;;;12.48;2.25;;;6.60;92.60;;;;;;5040589;28;20033;-82
2020/12/21 02:49:02;;;;;;;4.32;1.20;;;6.60;92.60;;;;;;5058111;28;20029;-82
2020/12/21 02:51:27;;;;;;;9.45;2.15;;;6.50;92.80;;;;;;5013491;28;20024;-83
2020/12/21 02:53:53;;;;;;;5.68;1.75;;;6.60;92.70;;;;;;5041767;28;20032;-82
2020/12/21 02:56:18;;;;;;;11.98;1.42;;;6.50;92.60;;;;;;5042583;28;20426;-82
2020/12/21 02:58:44;;;;;;;9.07;1.75;;;6.60;92.60;;;;;;5013398;28;20024;-81
2020/12/21 03:01:09;;;;;;;10.05;1.38;;;6.60;92.80;;;;;;5000442;28;20594;-81
2020/12/21 03:03:35;;;;;;;7.05;1.63;;;6.60;92.50;;;;;;5037903;28;20174;-82
2020/12/21 03:06:00;;;;;;;8.77;1.33;;;6.60;92.50;;;;;;5056602;28;20115;-81
2020/12/21 03:08:26;;;;;;;2.97;0.68;;;6.60;92.60;;;;;;5056135;28;20055;-82
2020/12/21 03:10:51;;;;;;;12.38;1.95;;;6.60;92.50;;;;;;5042622;28;20111;-82
2020/12/21 03:13:17;;;;;;;5.72;1.42;;;6.50;92.80;;;;;;5031392;28;20028;-82
2020/12/21 03:15:42;;;;;;;9.63;1.67;;;6.60;92.60;;;;;;5045215;28;20550;-80
2020/12/21 03:18:08;;;;;;;5.35;1.50;;;6.60;92.50;;;;;;5008717;28;20040;-83
2020/12/21 03:20:34;;;;;;;9.65;1.50;;;6.60;92.50;;;;;;5038806;28;20128;-83
2020/12/21 03:22:59;;;;;;;8.20;1.98;;;6.60;92.50;;;;;;5038787;28;20024;-82
2020/12/21 03:25:25;;;;;;;6.53;1.30;;;6.50;92.50;;;;;;5042492;28;20020;-82
2020/12/21 03:27:50;;;;;;;6.85;1.65;;;6.50;92.60;;;;;;5038199;28;20032;-81
2020/12/21 03:30:16;;;;;;;5.40;1.30;;;6.50;92.60;;;;;;5027372;28;20044;-82
2020/12/21 03:32:41;;;;;;;9.45;1.55;;;6.40;92.70;;;;;;5029339;28;20024;-82
2020/12/21 03:35:07;;;;;;;10.95;2.45;;;6.40;92.70;;;;;;5038878;28;20044;-82
2020/12/21 03:37:34;;;;;;;6.47;1.30;;;6.40;92.50;;;;;;5035418;28;20081;-82
2020/12/21 03:40:00;;;;;;;5.55;1.35;;;6.40;92.50;;;;;;5027616;28;20032;-82
2020/12/21 03:42:26;;;;;;;6.30;1.30;;;6.30;92.70;;;;;;5023656;28;20044;-81
2020/12/21 03:44:51;;;;;;;10.30;1.67;;;6.30;92.70;;;;;;5037880;28;20032;-82
2020/12/21 03:47:17;;;;;;;4.97;1.33;;;6.30;92.60;;;;;;5057678;28;20059;-82
2020/12/21 03:49:42;;;;;;;6.97;1.60;;;6.30;92.60;;;;;;5030781;28;20440;-82
2020/12/21 03:52:08;;;;;;;7.40;2.00;;;6.20;92.50;;;;;;5029046;28;20493;-82
2020/12/21 03:54:33;;;;;;;11.68;1.50;;;6.20;92.70;;;;;;5013378;28;20456;-83
2020/12/21 03:56:59;;;;;;;5.30;0.98;;;6.20;92.70;;;;;;5023215;28;20160;-81
2020/12/21 03:59:24;;;;;;;5.43;1.27;;;6.20;92.60;;;;;;5009044;28;20071;-81
2020/12/21 04:01:50;;;;;;;9.43;1.35;;;6.30;92.60;;;;;;5020212;28;20061;-82
2020/12/21 04:04:15;;;;;;;3.17;0.90;;;6.20;92.60;;;;;;5044317;28;20137;-83
2020/12/21 04:06:41;;;;;;;6.97;1.15;;;6.20;92.60;;;;;;5026570;28;20429;-83
2020/12/21 04:09:06;;;;;;;7.45;1.20;;;6.20;92.60;;;;;;5042679;28;20037;-82
2020/12/21 04:11:32;;;;;;;5.15;1.20;;;6.20;92.80;;;;;;5009659;28;20066;-83
2020/12/21 04:13:57;;;;;;;10.25;1.08;;;6.20;92.60;;;;;;5024981;28;20032;-82
2020/12/21 04:16:23;;;;;;;7.20;1.55;;;6.20;92.60;;;;;;5023451;28;20056;-83
2020/12/21 04:18:48;;;;;;;7.20;1.35;;;6.10;92.60;;;;;;5026685;28;20559;-82
2020/12/21 04:21:14;;;;;;;9.98;1.30;;;6.10;92.70;;;;;;5012287;28;20036;-82
2020/12/21 04:23:42;;;;;;;4.03;1.23;;;6.10;92.80;;;;;;5047263;28;20032;-81
2020/12/21 04:26:08;;;;;;;3.67;1.48;;;6.20;92.70;;;;;;5028157;28;20143;-81
2020/12/21 04:28:36;;;;;;;9.68;1.40;;;6.10;92.50;;;;;;5040969;28;20027;-81
2020/12/21 04:31:05;;;;;;;9.02;1.30;;;6.10;92.70;;;;;;5024818;28;20125;-81
2020/12/21 04:33:30;;;;;;;13.50;2.75;;;6.10;92.70;;;;;;5040304;28;20032;-81
2020/12/21 04:35:56;;;;;;;4.18;1.13;;;6.10;92.60;;;;;;5025365;28;20077;-81
2020/12/21 04:38:21;;;;;;;6.45;1.25;;;6.00;92.60;;;;;;5026185;28;20032;-82
2020/12/21 04:40:51;;;;;;;6.82;1.33;;;6.00;92.50;;;;;;5012886;28;20505;-81
2020/12/21 04:43:17;;;;;;;7.07;1.35;;;6.00;92.60;;;;;;5042926;28;20487;-82
2020/12/21 04:45:43;;;;;;;2.65;1.02;;;6.00;92.70;;;;;;5012645;28;20039;-82
2020/12/21 04:48:09;;;;;;;5.72;1.40;;;5.90;92.70;;;;;;5027119;28;20051;-82
2020/12/21 04:50:35;;;;;;;3.97;1.20;;;5.90;92.70;;;;;;5010752;28;20068;-81
2020/12/21 04:53:01;;;;;;;1.55;0.75;;;6.00;92.70;;;;;;5027282;28;20049;-82
2020/12/21 04:55:27;;;;;;;6.72;1.25;;;6.00;92.70;;;;;;5012089;28;20501;-81
2020/12/21 04:58:02;;;;;;;3.92;1.45;;;6.00;92.40;;;;;;5023980;28;20036;-82
2020/12/21 05:00:30;;;;;;;3.90;1.05;;;6.00;92.50;;;;;;5011036;28;20032;-79
2020/12/21 05:02:55;;;;;;;11.07;1.17;;;5.90;92.60;;;;;;5041199;28;20028;-82
2020/12/21 05:05:47;;;;;;;7.50;1.33;;;5.80;92.60;;;;;;5055829;28;20365;-81
2020/12/21 05:08:14;;;;;;;6.40;1.00;;;5.90;92.60;;;;;;5065226;28;21321;-82
2020/12/21 05:10:43;;;;;;;5.20;1.50;;;5.90;92.60;;;;;;5029851;28;20032;-81
2020/12/21 05:13:11;;;;;;;8.35;3.05;;;5.90;92.50;;;;;;5034846;28;20039;-82
2020/12/21 05:15:37;;;;;;;1.63;0.40;;;5.90;92.50;;;;;;5019817;28;20035;-84
2020/12/21 05:18:09;;;;;;;6.63;1.25;;;5.90;92.50;;;;;;5023764;28;20654;-81
2020/12/21 05:20:36;;;;;;;10.48;1.30;;;6.00;92.50;;;;;;5055072;28;20127;-82
2020/12/21 05:23:02;;;;;;;4.10;1.13;;;5.90;92.30;;;;;;5043439;28;20036;-83
2020/12/21 05:25:28;;;;;;;5.05;1.50;;;5.90;92.40;;;;;;5017395;28;20512;-82
2020/12/21 05:27:54;;;;;;;8.52;1.40;;;6.00;92.30;;;;;;5023361;28;20139;-82
2020/12/21 05:30:19;;;;;;;6.07;1.08;;;6.00;92.20;;;;;;5012760;28;20040;-81
2020/12/21 05:32:45;;;;;;;7.75;1.73;;;6.10;92.20;;;;;;5016604;28;20055;-82
2020/12/21 05:35:10;;;;;;;12.85;1.70;;;6.00;92.30;;;;;;5028282;28;20032;-81
2020/12/21 05:37:38;;;;;;;4.65;1.08;;;6.00;92.20;;;;;;5025158;28;20454;-82
2020/12/21 05:40:03;;;;;;;9.23;1.45;;;6.10;92.20;;;;;;5040700;28;20473;-81
2020/12/21 05:42:29;;;;;;;6.05;1.08;;;6.00;92.20;;;;;;5041106;28;20112;-82
2020/12/21 05:44:58;;;;;;;8.65;1.27;;;6.00;92.30;;;;;;5057114;28;20480;-82
2020/12/21 05:47:24;;;;;;;9.70;1.17;;;6.00;92.30;;;;;;5055488;28;20031;-80
2020/12/21 05:49:54;;;;;;;7.90;1.40;;;6.00;92.40;;;;;;5031989;28;20040;-80
2020/12/21 05:52:26;;;;;;;2.65;1.00;;;5.90;92.40;;;;;;5030681;28;20291;-82
2020/12/21 05:54:52;;;;;;;7.75;1.48;;;5.90;92.50;;;;;;5044080;28;20062;-81
2020/12/21 05:57:18;;;;;;;4.65;1.33;;;6.00;92.40;;;;;;5014805;28;20060;-81
2020/12/21 05:59:43;;;;;;;7.82;1.95;;;6.00;92.40;;;;;;5014273;28;20026;-82
2020/12/21 06:02:09;;;;;;;5.55;1.15;;;5.90;92.40;;;;;;5048605;28;20094;-82
2020/12/21 06:04:39;;;;;;;6.72;1.30;;;5.90;92.40;;;;;;5015287;28;20533;-82
2020/12/21 06:07:04;;;;;;;11.82;1.73;;;6.10;92.40;;;;;;5040544;28;20038;-82
2020/12/21 06:09:30;;;;;;;7.65;1.52;;;6.00;92.30;;;;;;5019736;28;20475;-82
2020/12/21 06:11:55;;;;;;;4.05;1.55;;;6.10;92.40;;;;;;5041466;28;20974;-84
2020/12/21 06:14:21;;;;;;;4.57;1.10;;;6.00;92.40;;;;;;5041690;28;20041;-81
2020/12/21 06:16:46;;;;;;;4.18;1.00;;;6.10;92.30;;;;;;5012471;28;20028;-82
2020/12/21 06:19:13;;;;;;;4.68;1.50;;;6.10;92.40;;;;;;5015603;28;20036;-82
2020/12/21 06:21:48;;;;;;;6.22;1.13;;;6.10;92.40;;;;;;5016762;28;20467;-82
2020/12/21 06:24:21;;;;;;;4.10;1.00;;;6.10;92.30;;;;;;5020587;28;20380;-84
2020/12/21 06:26:46;;;;;;;6.60;1.15;;;6.20;92.40;;;;;;5013030;28;20032;-84
2020/12/21 06:29:14;;;;;;;5.78;1.23;;;6.20;92.30;;;;;;5026302;28;20052;-82
2020/12/21 06:31:48;;;;;;;3.88;1.40;;;6.20;92.30;;;;;;5056604;28;20500;-85
2020/12/21 06:34:15;;;;;;;8.48;1.48;;;6.10;92.30;;;;;;5030037;28;20171;-83
2020/12/21 06:36:41;;;;;;;5.53;1.23;;;6.10;92.30;;;;;;5032415;28;20040;-84
2020/12/21 06:39:06;;;;;;;4.78;1.10;;;6.30;92.20;;;;;;5028687;28;20040;-83
2020/12/21 06:41:32;;;;;;;2.90;1.02;;;6.20;92.20;;;;;;5014133;28;20025;-82
2020/12/21 06:44:03;;;;;;;4.57;1.25;;;6.20;92.20;;;;;;5025461;28;20454;-81
2020/12/21 06:46:28;;;;;;;5.90;1.20;;;6.20;92.10;;;;;;5045509;28;20043;-83
2020/12/21 06:49:03;;;;;;;9.38;1.67;;;6.30;92.10;;;;;;5010268;28;20028;-85
2020/12/21 06:51:29;;;;;;;3.93;1.23;;;6.30;92.10;;;;;;5046803;28;20033;-83
2020/12/21 06:53:56;;;;;;;6.35;1.30;;;6.30;92.00;;;;;;5023077;28;20392;-83
2020/12/21 06:56:26;;;;;;;7.50;1.38;;;6.30;92.10;;;;;;5027903;28;20024;-86
2020/12/21 06:58:55;;;;;;;7.85;1.23;;;6.20;92.10;;;;;;5043708;28;20033;-85
2020/12/21 07:01:26;;;;;;;6.88;1.02;;;6.30;92.20;;;;;;5026765;28;20500;-86
2020/12/21 07:03:52;;;;;;;9.60;1.15;;;6.30;92.10;;;;;;5013787;28;20029;-85
2020/12/21 07:06:18;;;;;;;11.40;1.55;;;6.30;92.40;;;;;;5010341;28;20035;-83
2020/12/21 07:08:44;;;;;;;10.88;1.88;;;6.20;92.20;;;;;;5029470;28;20036;-84
2020/12/21 07:11:23;;;;;;;4.60;1.40;;;6.20;92.20;;;;;;5013407;28;20041;-84
2020/12/21 07:13:49;;;;;;;2.60;1.00;;;6.30;92.20;;;;;;5022450;28;20073;-85
2020/12/21 07:16:16;;;;;;;6.15;1.35;;;6.30;92.10;;;;;;5013551;28;20115;-84
2020/12/21 07:18:41;;;;;;;10.45;1.60;;;6.30;92.20;;;;;;4992465;28;20032;-84
2020/12/21 07:21:09;;;;;;;6.57;1.40;;;6.30;92.20;;;;;;5017721;28;20376;-83
2020/12/21 07:23:38;;;;;;;3.63;1.65;;;6.30;92.20;;;;;;5035580;28;20320;-83
2020/12/21 07:26:05;;;;;;;2.70;1.23;;;6.40;92.20;;;;;;5000490;28;20036;-83
2020/12/21 07:28:30;;;;;;;6.47;1.73;;;6.40;92.20;;;;;;5025235;28;20049;-84
2020/12/21 07:31:16;;;;;;;6.15;1.98;;;6.40;92.20;;;;;;5022050;28;20061;-87
2020/12/21 07:33:52;;;;;;;8.65;1.25;;;6.30;92.20;;;;;;5036216;28;20021;-85
2020/12/21 07:36:19;;;;;;;6.00;1.30;;;6.30;92.30;;;;;;5026344;28;20024;-86
2020/12/21 07:38:44;;;;;;;7.40;1.35;;;6.30;92.30;;;;;;5012273;28;20450;-83
2020/12/21 07:41:10;;;;;;;7.22;1.27;;;6.40;92.40;;;;;;5007647;28;20033;-83
2020/12/21 07:43:49;;;;;;;10.02;1.20;;;6.30;92.30;;;;;;5011758;28;20039;-81
2020/12/21 07:46:22;;;;;;;10.00;2.05;;;6.40;92.50;;;;;;5028689;28;20045;-84
2020/12/21 07:48:48;;;;;;;5.13;1.10;;;6.30;92.40;;;;;;5018271;28;20035;-83
2020/12/21 07:51:14;;;;;;;3.83;1.30;;;6.40;92.50;;;;;;5053322;28;20029;-84
2020/12/21 07:53:40;;;;;;;2.75;1.00;;;6.40;92.40;;;;;;5027664;28;20032;-84
2020/12/21 07:56:06;;;;;;;8.55;2.47;;;6.40;92.40;;;;;;5037751;28;20112;-87
2020/12/21 07:58:35;;;;;;;10.05;1.40;;;6.40;92.40;;;;;;5023096;28;20050;-83
2020/12/21 08:01:01;;;;;;;4.13;1.20;;;6.30;92.60;;;;;;5026307;28;20029;-85
2020/12/21 08:03:26;;;;;;;7.30;1.30;;;6.40;92.40;;;;;;5021384;28;20043;-84
2020/12/21 08:06:12;;;;;;;6.47;1.52;;;6.40;92.40;;;;;;5011924;28;20093;-84
2020/12/21 08:08:38;;;;;;;3.78;1.40;;;6.50;92.40;;;;;;5025794;28;20059;-85
2020/12/21 08:11:04;;;;;;;5.90;1.50;;;6.40;92.40;;;;;;5026934;28;20037;-79
2020/12/21 08:13:30;;;;;;;6.63;1.95;;;6.40;92.50;;;;;;5036493;28;20029;-80
2020/12/21 08:16:08;;;;;;;3.65;1.02;;;6.50;92.40;;;;;;5036734;28;20493;-78
2020/12/21 08:18:33;;;;;;;8.85;1.83;;;6.50;92.40;;;;;;5036464;28;20086;-79
2020/12/21 08:20:59;;;;;;;7.68;1.83;;;6.50;92.40;;;;;;5005319;28;20388;-79
2020/12/21 08:23:25;;;;;;;9.88;1.60;;;6.60;92.40;;;;;;5024614;28;20024;-79
2020/12/21 08:25:51;;;;;;;6.65;1.63;;;6.60;92.50;;;;;;5024448;28;20028;-79
2020/12/21 08:28:30;;;;;;;4.10;1.00;;;6.70;92.30;;;;;;5046414;28;20051;-79
2020/12/21 08:31:18;;;;;;;8.05;1.55;;;6.70;92.30;;;;;;5054233;28;20093;-79
2020/12/21 08:33:56;;;;;;;5.18;1.60;;;6.70;92.40;;;;;;5075043;28;20025;-78
2020/12/21 08:36:26;;;;;;;6.93;1.63;;;6.80;92.30;;;;;;5028682;28;20032;-78
2020/12/21 08:38:52;;;;;;;10.05;2.05;;;6.80;92.30;;;;;;5008687;28;20139;-78
2020/12/21 08:41:18;;;;;;;5.93;1.80;;;6.80;92.30;;;;;;5041934;28;20518;-78
2020/12/21 08:43:43;;;;;;;12.32;1.30;;;6.90;92.30;;;;;;4329656;28;10000074;-78
2020/12/21 08:46:10;;;;;;;4.43;1.50;;;6.90;92.30;;;;;;5024238;28;20036;-78
2020/12/21 08:48:37;;;;;;;7.35;1.73;;;7.00;92.10;;;;;;5012365;28;20028;-78
2020/12/21 08:51:02;;;;;;;5.35;1.75;;;7.00;92.10;;;;;;5040024;28;20024;-77
2020/12/21 08:53:28;;;;;;;3.70;1.88;;;7.00;92.10;;;;;;5045946;28;20048;-79
2020/12/21 08:55:53;;;;;;;5.35;1.67;;;7.00;92.10;;;;;;5027832;28;20032;-79
2020/12/21 08:58:19;;;;;;;7.57;1.52;;;7.00;92.30;;;;;;5030499;28;20065;-78
2020/12/21 09:00:44;;;;;;;5.45;1.73;;;7.00;92.00;;;;;;5022381;28;20443;-78
2020/12/21 09:03:10;;;;;;;12.15;2.17;;;7.10;92.00;;;;;;5010422;28;20025;-78
2020/12/21 09:05:39;;;;;;;8.88;1.23;;;7.10;92.00;;;;;;5035623;28;20416;-78
2020/12/21 09:08:04;;;;;;;6.95;1.40;;;7.10;92.00;;;;;;5042786;28;20024;-79
2020/12/21 09:10:30;;;;;;;4.50;1.85;;;7.20;91.90;;;;;;5032773;28;20031;-79
2020/12/21 09:12:55;;;;;;;4.05;1.40;;;7.20;91.90;;;;;;5027606;28;20403;-79
2020/12/21 09:15:22;;;;;;;4.25;1.70;;;7.20;92.00;;;;;;5016754;28;20020;-79
2020/12/21 09:17:47;;;;;;;5.93;1.58;;;7.30;91.90;;;;;;5031831;28;20068;-79
2020/12/21 09:20:13;;;;;;;12.57;2.05;;;7.20;92.00;;;;;;5022088;28;20213;-79
2020/12/21 09:22:38;;;;;;;6.68;1.38;;;7.30;91.90;;;;;;5048432;28;20440;-78
2020/12/21 09:25:04;;;;;;;5.72;1.50;;;7.30;91.80;;;;;;5039481;28;20523;-79
2020/12/21 09:27:29;;;;;;;4.75;2.38;;;7.30;91.70;;;;;;5075850;28;20428;-80
2020/12/21 09:29:55;;;;;;;5.65;1.50;;;7.40;91.70;;;;;;5025748;28;20035;-79
2020/12/21 09:32:21;;;;;;;4.25;1.48;;;7.40;92.10;;;;;;5040659;28;20124;-80
2020/12/21 09:34:48;;;;;;;3.10;1.52;;;7.40;91.80;;;;;;5014271;28;20456;-78
2020/12/21 09:37:13;;;;;;;10.15;1.33;;;7.50;91.70;;;;;;5009634;28;20489;-78
2020/12/21 09:39:39;;;;;;;4.50;1.38;;;7.50;91.60;;;;;;5030881;28;20063;-78
2020/12/21 09:42:05;;;;;;;5.18;1.25;;;7.50;91.70;;;;;;5059356;28;20029;-78
2020/12/21 09:44:30;;;;;;;4.80;1.15;;;7.50;91.80;;;;;;5015330;28;20028;-79
2020/12/21 09:46:56;;;;;;;6.45;1.40;;;7.60;91.60;;;;;;5041448;28;20440;-79
2020/12/21 09:49:21;;;;;;;4.32;1.23;;;7.70;91.50;;;;;;5041694;28;20491;-78
2020/12/21 09:51:50;;;;;;;10.65;2.10;;;7.60;91.60;;;;;;5046645;28;20053;-79
2020/12/21 09:54:16;;;;;;;6.55;1.40;;;7.70;91.60;;;;;;5046101;28;20052;-78
2020/12/21 09:56:46;;;;;;;6.10;1.48;;;7.70;91.50;;;;;;5016957;28;20476;-78
2020/12/21 09:59:11;;;;;;;3.22;0.93;;;7.80;91.50;;;;;;5040676;28;20029;-79
2020/12/21 10:01:37;;;;;;;2.80;1.13;;;7.80;91.50;;;;;;5024366;28;20039;-78
2020/12/21 10:04:02;;;;;;;10.95;2.35;;;7.80;91.60;;;;;;5029740;28;20032;-79
2020/12/21 10:06:28;;;;;;;7.53;1.95;;;7.80;91.40;;;;;;5014224;28;20461;-79
2020/12/21 10:08:53;;;;;;;4.35;1.30;;;7.90;91.30;;;;;;5012941;28;20040;-79
2020/12/21 10:11:19;;;;;;;4.57;1.58;;;7.90;91.40;;;;;;5028428;28;20551;-79
2020/12/21 10:13:44;;;;;;;6.57;1.27;;;8.00;91.30;;;;;;5017166;28;20379;-79
2020/12/21 10:16:10;;;;;;;5.57;1.15;;;8.00;91.30;;;;;;5027944;28;20124;-79
2020/12/21 10:18:35;;;;;;;4.50;1.20;;;8.00;91.20;;;;;;5032771;28;20066;-79
2020/12/21 10:21:02;;;;;;;10.95;1.42;;;8.10;91.40;;;;;;5023765;28;20028;-78
2020/12/21 10:23:28;;;;;;;4.80;1.23;;;8.10;91.30;;;;;;5026084;28;20379;-79
2020/12/21 10:25:53;;;;;;;4.68;1.77;;;8.10;91.30;;;;;;5039782;28;20035;-79
2020/12/21 10:28:19;;;;;;;6.63;1.50;;;8.20;91.50;;;;;;5034111;28;20063;-79
2020/12/21 10:30:44;;;;;;;6.85;1.08;;;8.20;91.50;;;;;;5014522;28;20032;-79
2020/12/21 10:33:10;;;;;;;8.68;1.10;;;8.20;91.70;;;;;;5044425;28;20439;-79
2020/12/21 10:35:39;;;;;;;7.72;1.20;;;8.20;91.80;;;;;;5024908;28;23462;-78
2020/12/21 10:38:04;;;;;;;9.23;1.10;;;8.20;91.80;;;;;;5025087;28;20499;-77
2020/12/21 10:40:30;;;;;;;10.13;1.60;;;8.20;91.70;;;;;;5023796;28;20032;-78
2020/12/21 10:42:55;;;;;;;5.10;1.48;;;8.20;92.10;;;;;;5055420;28;20032;-79
2020/12/21 10:45:21;;;;;;;7.90;1.45;;;8.20;91.90;;;;;;5023246;28;20029;-79
2020/12/21 10:47:46;;;;;;;10.07;1.30;;;8.20;92.00;;;;;;5044155;28;20047;-79
2020/12/21 10:50:12;;;;;;;8.68;1.45;;;8.20;92.10;;;;;;5015203;28;20120;-78
2020/12/21 10:52:37;;;;;;;7.43;1.20;;;8.20;92.10;;;;;;5013315;28;20136;-78
2020/12/21 10:55:03;;;;;;;6.75;1.60;;;8.30;92.20;;;;;;5036552;28;20031;-78
2020/12/21 10:57:29;;;;;;;7.63;1.45;;;8.30;92.20;;;;;;5057511;28;20028;-79
2020/12/21 10:59:54;;;;;;;2.63;1.30;;;8.40;92.10;;;;;;5023636;28;20036;-80
2020/12/21 11:02:20;;;;;;;6.63;1.63;;;8.40;92.10;;;;;;5029164;28;20020;-79
2020/12/21 11:04:46;;;;;;;5.28;1.42;;;8.50;92.00;;;;;;5047239;28;20151;-79
2020/12/21 11:07:12;;;;;;;3.88;1.58;;;8.50;92.00;;;;;;5010002;28;20052;-80
2020/12/21 11:09:37;;;;;;;5.97;1.60;;;8.60;92.00;;;;;;5019668;28;20608;-78
2020/12/21 11:12:03;;;;;;;7.45;0.98;;;8.60;92.20;;;;;;5040482;28;20404;-79
2020/12/21 11:14:28;;;;;;;5.38;1.08;;;8.60;91.90;;;;;;5038724;28;20435;-79
2020/12/21 11:16:54;;;;;;;6.65;1.77;;;8.60;92.10;;;;;;5022962;28;20032;-80
2020/12/21 11:19:19;;;;;;;4.18;1.20;;;8.60;91.90;;;;;;5012152;28;20036;-80
2020/12/21 11:21:45;;;;;;;7.72;1.50;;;8.60;91.90;;;;;;5030778;28;20273;-79
2020/12/21 11:24:11;;;;;;;3.55;1.30;;;8.60;91.90;;;;;;5048953;28;20468;-80
2020/12/21 11:26:36;;;;;;;6.72;1.58;;;8.70;91.80;;;;;;5014770;28;20048;-81
2020/12/21 11:29:04;;;;;;;6.85;1.60;;;8.70;92.00;;;;;;5012476;28;20041;-80
2020/12/21 11:31:31;;;;;;;3.00;1.20;;;8.70;91.90;;;;;;5011730;28;20379;-79
2020/12/21 11:33:56;;;;;;;4.38;1.70;;;8.70;91.60;;;;;;5020072;28;20025;-80
2020/12/21 11:36:22;;;;;;;5.57;1.42;;;8.80;91.70;;;;;;5041922;28;20028;-80
2020/12/21 11:38:47;;;;;;;2.88;1.20;;;8.90;91.60;;;;;;5024978;28;20490;-80
2020/12/21 11:41:13;;;;;;;5.38;1.13;;;9.00;91.80;;;;;;5027931;28;20032;-79
2020/12/21 11:43:38;;;;;;;2.05;0.95;;;9.10;91.30;;;;;;5045337;28;20039;-80
2020/12/21 11:46:04;;;;;;;2.85;0.90;;;9.20;91.20;;;;;;5038271;28;20036;-80
2020/12/21 11:48:29;;;;;;;9.68;1.52;;;9.30;91.20;;;;;;5038967;28;20028;-79
2020/12/21 11:50:55;;;;;;;8.90;1.00;;;9.30;91.20;;;;;;5038550;28;20047;-79
2020/12/21 11:53:23;;;;;;;6.88;1.70;;;9.40;91.10;;;;;;5043592;28;20028;-79
2020/12/21 11:55:48;;;;;;;4.97;1.20;;;9.40;91.10;;;;;;5028075;28;20032;-79
2020/12/21 11:58:14;;;;;;;3.17;1.65;;;9.50;91.30;;;;;;5044920;28;20040;-79
2020/12/21 12:00:39;;;;;;;4.43;1.48;;;9.40;91.40;;;;;;5013734;28;20032;-80
2020/12/21 12:03:05;;;;;;;9.73;2.38;;;9.40;91.30;;;;;;5036975;28;20224;-79
2020/12/21 12:05:31;;;;;;;10.38;1.88;;;9.40;91.40;;;;;;5013767;28;20362;-79
2020/12/21 12:07:56;;;;;;;6.07;2.10;;;9.50;91.50;;;;;;5021838;28;20060;-79
2020/12/21 12:10:22;;;;;;;9.40;2.13;;;9.40;91.70;;;;;;5023511;28;20035;-80
2020/12/21 12:12:47;;;;;;;8.00;1.70;;;9.30;91.50;;;;;;5016971;28;20047;-80
2020/12/21 12:15:13;;;;;;;4.10;1.67;;;9.30;91.60;;;;;;5068281;28;20515;-79
2020/12/21 12:17:38;;;;;;;6.55;1.70;;;9.30;91.60;;;;;;5034894;28;20054;-80
2020/12/21 12:20:04;;;;;;;9.75;3.00;;;9.20;91.80;;;;;;4675799;28;10000314;-80
2020/12/21 12:22:29;;;;;;;6.68;1.70;;;9.20;91.90;;;;;;5010267;28;20032;-80
2020/12/21 12:24:55;;;;;;;4.82;1.48;;;9.20;92.00;;;;;;5028191;28;20118;-79
2020/12/21 12:27:20;;;;;;;7.68;1.85;;;9.10;91.90;;;;;;5005729;28;20095;-79
2020/12/21 12:29:46;;;;;;;5.65;2.42;;;9.10;92.00;;;;;;5032569;28;20061;-80
2020/12/21 12:32:11;;;;;;;7.70;1.95;;;9.00;92.20;;;;;;5026124;28;20082;-80
2020/12/21 12:34:37;;;;;;;9.93;1.95;;;9.00;92.20;;;;;;5021300;28;20036;-80
2020/12/21 12:37:03;;;;;;;6.70;2.17;;;8.90;92.20;;;;;;5025315;28;20105;-80
2020/12/21 12:39:28;;;;;;;6.88;2.35;;;8.90;92.30;;;;;;5041599;28;20043;-79
2020/12/21 12:41:54;;;;;;;6.82;2.58;;;8.80;92.30;;;;;;5028473;28;20110;-80
2020/12/21 12:44:21;;;;;;;6.28;2.63;;;8.80;92.40;;;;;;5027510;28;20056;-80
2020/12/21 12:46:46;;;;;;;5.50;2.03;;;8.80;92.50;;;;;;5013919;28;20035;-80
2020/12/21 12:49:13;;;;;;;4.50;2.30;;;8.80;92.50;;;;;;5029056;28;20037;-80
2020/12/21 12:51:39;;;;;;;5.68;2.25;;;8.70;92.50;;;;;;5032070;28;20420;-81